Impacts TAF Board INFO
FOR SITUATIONAL AWARENESS. NOT TO BE USED FOR FLIGHT PLANNING PURPOSES.
IDs:

KAXN - Alexandria/Chandler, MN, US

Issued at 0520 UTC 16 Jul 2018
Updated at 1039 UTC 16 Jul 2018
Potential Impact None Slight Moderate High
Time<<16/23Z 17/00Z 17/01Z 17/02Z 17/03Z 17/04Z 17/05Z 17/06Z 17/07Z 17/08Z 17/09Z 17/10Z 17/11Z>>
Type PRVL PRVL PRVL PRVL PRVL PRVL PRVL
VIS >6 >6 >6 >6 >6 >6 >6
CIG -- -- -- -- -- -- --
Cover SKC SKC SKC SKC SKC SKC SKC
FltCat VFR VFR VFR VFR VFR VFR VFR
WX -- -- -- -- -- -- --
WDir 300 300 360 360 360 360 360
WSpd 10 10 6 6 6 6 6
WGst -- -- -- -- -- -- --

Raw TAF
KAXN 160520Z 1606/1706 27005KT P6SM SKC
  FM161500 30010KT P6SM SKC
  FM170100 36006KT P6SM SKC


METAR Board
Radar Display
Forecast Discussion

FOR SITUATIONAL AWARENESS. NOT TO BE USED FOR FLIGHT PLANNING PURPOSES.